sensor_id;sensor_type;location;lat;lon;timestamp;P1;durP1;ratioP1;P2;durP2;ratioP2
67508;SDS011;54354;44.724;11.284;2022-11-03T00:01:56;45.40;;;28.00;;
67508;SDS011;54354;44.724;11.284;2022-11-03T00:04:22;42.15;;;27.80;;
67508;SDS011;54354;44.724;11.284;2022-11-03T00:06:49;43.88;;;27.35;;
67508;SDS011;54354;44.724;11.284;2022-11-03T00:09:16;40.30;;;27.60;;
67508;SDS011;54354;44.724;11.284;2022-11-03T00:11:44;42.95;;;28.45;;
67508;SDS011;54354;44.724;11.284;2022-11-03T00:14:11;43.95;;;28.55;;
67508;SDS011;54354;44.724;11.284;2022-11-03T00:16:39;46.50;;;27.95;;
67508;SDS011;54354;44.724;11.284;2022-11-03T00:19:05;46.20;;;27.50;;
67508;SDS011;54354;44.724;11.284;2022-11-03T00:21:32;43.20;;;28.15;;
67508;SDS011;54354;44.724;11.284;2022-11-03T00:23:57;48.42;;;27.98;;
67508;SDS011;54354;44.724;11.284;2022-11-03T00:26:24;44.47;;;27.90;;
67508;SDS011;54354;44.724;11.284;2022-11-03T00:28:54;45.40;;;28.00;;
67508;SDS011;54354;44.724;11.284;2022-11-03T00:31:22;45.10;;;28.45;;
67508;SDS011;54354;44.724;11.284;2022-11-03T00:33:50;44.22;;;28.33;;
67508;SDS011;54354;44.724;11.284;2022-11-03T00:36:20;44.63;;;28.35;;
67508;SDS011;54354;44.724;11.284;2022-11-03T00:38:47;41.33;;;26.98;;
67508;SDS011;54354;44.724;11.284;2022-11-03T00:41:13;41.97;;;26.55;;
67508;SDS011;54354;44.724;11.284;2022-11-03T00:43:39;41.03;;;26.98;;
67508;SDS011;54354;44.724;11.284;2022-11-03T00:46:05;42.63;;;27.88;;
67508;SDS011;54354;44.724;11.284;2022-11-03T00:48:32;42.80;;;27.17;;
67508;SDS011;54354;44.724;11.284;2022-11-03T00:51:09;47.25;;;28.73;;
67508;SDS011;54354;44.724;11.284;2022-11-03T00:53:39;40.95;;;27.63;;
67508;SDS011;54354;44.724;11.284;2022-11-03T00:56:06;42.88;;;29.10;;
67508;SDS011;54354;44.724;11.284;2022-11-03T01:25:29;63.00;;;38.05;;
67508;SDS011;54354;44.724;11.284;2022-11-03T01:27:54;71.05;;;40.58;;
67508;SDS011;54354;44.724;11.284;2022-11-03T01:30:20;64.82;;;40.88;;
67508;SDS011;54354;44.724;11.284;2022-11-03T01:32:45;71.65;;;41.15;;
67508;SDS011;54354;44.724;11.284;2022-11-03T01:35:11;67.10;;;41.65;;
67508;SDS011;54354;44.724;11.284;2022-11-03T01:37:37;64.20;;;40.83;;
67508;SDS011;54354;44.724;11.284;2022-11-03T01:40:02;69.07;;;41.03;;
67508;SDS011;54354;44.724;11.284;2022-11-03T01:42:28;69.90;;;41.40;;
67508;SDS011;54354;44.724;11.284;2022-11-03T01:44:54;72.00;;;41.05;;
67508;SDS011;54354;44.724;11.284;2022-11-03T01:52:40;79.65;;;45.42;;
67508;SDS011;54354;44.724;11.284;2022-11-03T01:55:12;80.40;;;45.58;;
67508;SDS011;54354;44.724;11.284;2022-11-03T01:57:46;77.97;;;45.97;;
67508;SDS011;54354;44.724;11.284;2022-11-03T02:00:15;82.50;;;47.42;;
67508;SDS011;54354;44.724;11.284;2022-11-03T02:02:42;86.15;;;47.08;;
67508;SDS011;54354;44.724;11.284;2022-11-03T02:05:09;78.30;;;46.00;;
67508;SDS011;54354;44.724;11.284;2022-11-03T02:07:47;85.78;;;46.05;;
67508;SDS011;54354;44.724;11.284;2022-11-03T02:10:13;84.15;;;46.45;;
67508;SDS011;54354;44.724;11.284;2022-11-03T02:12:39;83.97;;;47.72;;
67508;SDS011;54354;44.724;11.284;2022-11-03T02:15:07;82.50;;;46.72;;
67508;SDS011;54354;44.724;11.284;2022-11-03T02:17:34;87.87;;;45.77;;
67508;SDS011;54354;44.724;11.284;2022-11-03T02:20:04;82.80;;;46.00;;
67508;SDS011;54354;44.724;11.284;2022-11-03T02:27:54;76.35;;;44.55;;
67508;SDS011;54354;44.724;11.284;2022-11-03T02:30:19;79.45;;;44.50;;
67508;SDS011;54354;44.724;11.284;2022-11-03T02:32:47;76.53;;;45.20;;
67508;SDS011;54354;44.724;11.284;2022-11-03T02:35:25;77.88;;;45.75;;
67508;SDS011;54354;44.724;11.284;2022-11-03T02:37:57;80.43;;;46.60;;
67508;SDS011;54354;44.724;11.284;2022-11-03T02:40:35;80.22;;;46.92;;
67508;SDS011;54354;44.724;11.284;2022-11-03T02:43:05;92.35;;;49.45;;
67508;SDS011;54354;44.724;11.284;2022-11-03T02:45:32;89.75;;;49.40;;
67508;SDS011;54354;44.724;11.284;2022-11-03T02:47:59;87.65;;;47.95;;
67508;SDS011;54354;44.724;11.284;2022-11-03T02:50:27;81.35;;;46.67;;
67508;SDS011;54354;44.724;11.284;2022-11-03T02:52:55;83.78;;;47.35;;
67508;SDS011;54354;44.724;11.284;2022-11-03T02:57:56;93.65;;;51.35;;
67508;SDS011;54354;44.724;11.284;2022-11-03T03:00:28;85.57;;;49.38;;
67508;SDS011;54354;44.724;11.284;2022-11-03T03:03:04;91.60;;;49.75;;
67508;SDS011;54354;44.724;11.284;2022-11-03T03:05:34;88.85;;;46.55;;
67508;SDS011;54354;44.724;11.284;2022-11-03T03:08:04;82.70;;;46.15;;
67508;SDS011;54354;44.724;11.284;2022-11-03T03:10:34;88.82;;;47.22;;
67508;SDS011;54354;44.724;11.284;2022-11-03T03:13:03;81.10;;;46.45;;
67508;SDS011;54354;44.724;11.284;2022-11-03T03:18:22;75.10;;;45.45;;
67508;SDS011;54354;44.724;11.284;2022-11-03T03:21:07;76.55;;;44.95;;
67508;SDS011;54354;44.724;11.284;2022-11-03T03:23:40;78.40;;;46.50;;
67508;SDS011;54354;44.724;11.284;2022-11-03T03:26:17;70.38;;;43.50;;
67508;SDS011;54354;44.724;11.284;2022-11-03T03:28:55;75.90;;;45.20;;
67508;SDS011;54354;44.724;11.284;2022-11-03T03:31:24;74.70;;;44.78;;
67508;SDS011;54354;44.724;11.284;2022-11-03T03:33:52;76.90;;;45.63;;
67508;SDS011;54354;44.724;11.284;2022-11-03T03:36:20;67.28;;;42.15;;
67508;SDS011;54354;44.724;11.284;2022-11-03T03:38:49;75.07;;;42.03;;
67508;SDS011;54354;44.724;11.284;2022-11-03T03:41:19;70.07;;;42.80;;
67508;SDS011;54354;44.724;11.284;2022-11-03T03:43:48;77.35;;;43.25;;
67508;SDS011;54354;44.724;11.284;2022-11-03T03:46:15;76.38;;;44.60;;
67508;SDS011;54354;44.724;11.284;2022-11-03T03:48:42;77.85;;;43.83;;
67508;SDS011;54354;44.724;11.284;2022-11-03T03:51:08;70.68;;;44.28;;
67508;SDS011;54354;44.724;11.284;2022-11-03T03:53:35;71.63;;;43.50;;
67508;SDS011;54354;44.724;11.284;2022-11-03T03:56:01;75.57;;;43.70;;
67508;SDS011;54354;44.724;11.284;2022-11-03T03:58:29;68.82;;;41.60;;
67508;SDS011;54354;44.724;11.284;2022-11-03T04:00:55;66.70;;;39.90;;
67508;SDS011;54354;44.724;11.284;2022-11-03T04:03:21;71.30;;;40.10;;
67508;SDS011;54354;44.724;11.284;2022-11-03T04:05:48;66.75;;;37.90;;
67508;SDS011;54354;44.724;11.284;2022-11-03T04:08:14;64.05;;;38.85;;
67508;SDS011;54354;44.724;11.284;2022-11-03T04:10:41;65.68;;;38.42;;
67508;SDS011;54354;44.724;11.284;2022-11-03T04:13:26;62.72;;;37.67;;
67508;SDS011;54354;44.724;11.284;2022-11-03T04:16:11;65.78;;;39.28;;
67508;SDS011;54354;44.724;11.284;2022-11-03T04:19:12;64.03;;;38.60;;
67508;SDS011;54354;44.724;11.284;2022-11-03T04:21:56;68.00;;;39.13;;
67508;SDS011;54354;44.724;11.284;2022-11-03T04:24:40;71.35;;;39.78;;
67508;SDS011;54354;44.724;11.284;2022-11-03T04:29:55;70.68;;;38.70;;
67508;SDS011;54354;44.724;11.284;2022-11-03T04:32:22;61.13;;;38.03;;
67508;SDS011;54354;44.724;11.284;2022-11-03T04:34:47;66.28;;;38.20;;
67508;SDS011;54354;44.724;11.284;2022-11-03T04:37:14;63.65;;;38.75;;
67508;SDS011;54354;44.724;11.284;2022-11-03T04:39:40;71.93;;;40.30;;
67508;SDS011;54354;44.724;11.284;2022-11-03T04:44:43;69.93;;;39.17;;
67508;SDS011;54354;44.724;11.284;2022-11-03T04:47:10;64.75;;;37.65;;
67508;SDS011;54354;44.724;11.284;2022-11-03T04:49:37;63.40;;;36.78;;
67508;SDS011;54354;44.724;11.284;2022-11-03T04:52:02;62.58;;;35.42;;
67508;SDS011;54354;44.724;11.284;2022-11-03T04:54:34;61.38;;;35.28;;
67508;SDS011;54354;44.724;11.284;2022-11-03T04:57:03;59.75;;;34.80;;
67508;SDS011;54354;44.724;11.284;2022-11-03T04:59:33;63.80;;;34.60;;
67508;SDS011;54354;44.724;11.284;2022-11-03T05:01:59;60.53;;;35.17;;
67508;SDS011;54354;44.724;11.284;2022-11-03T05:04:25;65.90;;;35.13;;
67508;SDS011;54354;44.724;11.284;2022-11-03T05:06:51;57.10;;;34.72;;
67508;SDS011;54354;44.724;11.284;2022-11-03T05:09:19;58.95;;;34.60;;
67508;SDS011;54354;44.724;11.284;2022-11-03T05:11:48;62.97;;;35.08;;
67508;SDS011;54354;44.724;11.284;2022-11-03T05:14:15;61.00;;;34.65;;
67508;SDS011;54354;44.724;11.284;2022-11-03T05:16:45;61.78;;;36.45;;
67508;SDS011;54354;44.724;11.284;2022-11-03T05:21:49;59.67;;;34.58;;
67508;SDS011;54354;44.724;11.284;2022-11-03T05:24:17;64.57;;;37.05;;
67508;SDS011;54354;44.724;11.284;2022-11-03T05:26:45;66.40;;;37.10;;
67508;SDS011;54354;44.724;11.284;2022-11-03T05:31:43;67.28;;;37.30;;
67508;SDS011;54354;44.724;11.284;2022-11-03T05:36:45;66.05;;;36.50;;
67508;SDS011;54354;44.724;11.284;2022-11-03T05:39:24;62.10;;;36.35;;
67508;SDS011;54354;44.724;11.284;2022-11-03T05:41:50;64.82;;;36.90;;
67508;SDS011;54354;44.724;11.284;2022-11-03T05:46:47;59.55;;;35.58;;
67508;SDS011;54354;44.724;11.284;2022-11-03T05:49:13;60.13;;;36.97;;
67508;SDS011;54354;44.724;11.284;2022-11-03T05:51:40;69.95;;;36.92;;
67508;SDS011;54354;44.724;11.284;2022-11-03T05:54:27;68.90;;;38.00;;
67508;SDS011;54354;44.724;11.284;2022-11-03T05:56:55;64.70;;;38.35;;
67508;SDS011;54354;44.724;11.284;2022-11-03T05:59:25;63.25;;;36.28;;
67508;SDS011;54354;44.724;11.284;2022-11-03T06:01:54;66.60;;;37.30;;
67508;SDS011;54354;44.724;11.284;2022-11-03T06:04:25;62.42;;;35.47;;
67508;SDS011;54354;44.724;11.284;2022-11-03T06:09:49;65.40;;;36.03;;
67508;SDS011;54354;44.724;11.284;2022-11-03T06:12:16;61.88;;;36.35;;
67508;SDS011;54354;44.724;11.284;2022-11-03T06:14:43;67.80;;;37.00;;
67508;SDS011;54354;44.724;11.284;2022-11-03T06:17:10;60.28;;;35.22;;
67508;SDS011;54354;44.724;11.284;2022-11-03T06:19:46;59.45;;;36.58;;
67508;SDS011;54354;44.724;11.284;2022-11-03T06:22:20;64.07;;;37.42;;
67508;SDS011;54354;44.724;11.284;2022-11-03T06:24:49;65.30;;;37.53;;
67508;SDS011;54354;44.724;11.284;2022-11-03T06:27:17;71.72;;;36.88;;
67508;SDS011;54354;44.724;11.284;2022-11-03T06:29:51;64.22;;;37.30;;
67508;SDS011;54354;44.724;11.284;2022-11-03T06:32:21;71.68;;;38.75;;
67508;SDS011;54354;44.724;11.284;2022-11-03T06:34:54;71.68;;;39.15;;
67508;SDS011;54354;44.724;11.284;2022-11-03T06:39:50;72.03;;;39.65;;
67508;SDS011;54354;44.724;11.284;2022-11-03T06:42:18;70.43;;;39.60;;
67508;SDS011;54354;44.724;11.284;2022-11-03T06:44:46;70.75;;;39.60;;
67508;SDS011;54354;44.724;11.284;2022-11-03T06:47:20;66.30;;;39.05;;
67508;SDS011;54354;44.724;11.284;2022-11-03T06:49:54;67.65;;;39.22;;
67508;SDS011;54354;44.724;11.284;2022-11-03T06:52:23;71.07;;;40.40;;
67508;SDS011;54354;44.724;11.284;2022-11-03T06:57:39;75.93;;;40.70;;
67508;SDS011;54354;44.724;11.284;2022-11-03T07:05:26;79.53;;;43.13;;
67508;SDS011;54354;44.724;11.284;2022-11-03T07:07:54;80.30;;;41.38;;
67508;SDS011;54354;44.724;11.284;2022-11-03T07:10:25;77.70;;;42.45;;
67508;SDS011;54354;44.724;11.284;2022-11-03T07:12:52;84.43;;;44.35;;
67508;SDS011;54354;44.724;11.284;2022-11-03T07:15:37;80.68;;;44.17;;
67508;SDS011;54354;44.724;11.284;2022-11-03T07:18:04;82.75;;;45.70;;
67508;SDS011;54354;44.724;11.284;2022-11-03T07:20:40;88.57;;;44.58;;
67508;SDS011;54354;44.724;11.284;2022-11-03T07:23:06;76.30;;;43.00;;
67508;SDS011;54354;44.724;11.284;2022-11-03T07:25:37;82.85;;;44.50;;
67508;SDS011;54354;44.724;11.284;2022-11-03T07:28:02;82.68;;;44.50;;
67508;SDS011;54354;44.724;11.284;2022-11-03T07:30:29;84.63;;;46.95;;
67508;SDS011;54354;44.724;11.284;2022-11-03T07:33:01;93.78;;;47.70;;
67508;SDS011;54354;44.724;11.284;2022-11-03T07:35:36;94.03;;;49.08;;
67508;SDS011;54354;44.724;11.284;2022-11-03T07:38:13;91.40;;;48.88;;
67508;SDS011;54354;44.724;11.284;2022-11-03T07:40:41;91.85;;;48.92;;
67508;SDS011;54354;44.724;11.284;2022-11-03T07:45:48;100.60;;;50.10;;
67508;SDS011;54354;44.724;11.284;2022-11-03T07:50:50;95.63;;;49.40;;
67508;SDS011;54354;44.724;11.284;2022-11-03T07:53:23;97.22;;;49.90;;
67508;SDS011;54354;44.724;11.284;2022-11-03T07:55:54;89.03;;;47.75;;
67508;SDS011;54354;44.724;11.284;2022-11-03T07:58:24;89.35;;;46.25;;
67508;SDS011;54354;44.724;11.284;2022-11-03T08:00:58;87.13;;;44.58;;
67508;SDS011;54354;44.724;11.284;2022-11-03T08:03:35;79.78;;;44.42;;
67508;SDS011;54354;44.724;11.284;2022-11-03T08:06:07;79.95;;;41.80;;
67508;SDS011;54354;44.724;11.284;2022-11-03T08:08:32;78.88;;;41.97;;
67508;SDS011;54354;44.724;11.284;2022-11-03T08:10:58;72.95;;;40.85;;
67508;SDS011;54354;44.724;11.284;2022-11-03T08:13:23;81.82;;;41.10;;
67508;SDS011;54354;44.724;11.284;2022-11-03T08:15:48;81.28;;;40.60;;
67508;SDS011;54354;44.724;11.284;2022-11-03T08:18:14;77.60;;;40.70;;
67508;SDS011;54354;44.724;11.284;2022-11-03T08:20:39;69.20;;;38.13;;
67508;SDS011;54354;44.724;11.284;2022-11-03T08:23:05;70.93;;;39.40;;
67508;SDS011;54354;44.724;11.284;2022-11-03T08:25:30;84.18;;;40.92;;
67508;SDS011;54354;44.724;11.284;2022-11-03T08:27:56;72.63;;;40.30;;
67508;SDS011;54354;44.724;11.284;2022-11-03T08:30:21;75.35;;;39.78;;
67508;SDS011;54354;44.724;11.284;2022-11-03T08:32:47;76.68;;;40.97;;
67508;SDS011;54354;44.724;11.284;2022-11-03T08:35:12;74.30;;;39.47;;
67508;SDS011;54354;44.724;11.284;2022-11-03T08:37:38;72.50;;;40.08;;
67508;SDS011;54354;44.724;11.284;2022-11-03T08:40:03;80.07;;;41.22;;
67508;SDS011;54354;44.724;11.284;2022-11-03T08:42:29;75.50;;;39.95;;
67508;SDS011;54354;44.724;11.284;2022-11-03T08:44:54;82.93;;;41.55;;
67508;SDS011;54354;44.724;11.284;2022-11-03T08:47:20;78.55;;;41.05;;
67508;SDS011;54354;44.724;11.284;2022-11-03T08:49:45;75.65;;;41.42;;
67508;SDS011;54354;44.724;11.284;2022-11-03T08:52:11;78.22;;;41.90;;
67508;SDS011;54354;44.724;11.284;2022-11-03T08:54:36;79.85;;;42.40;;
67508;SDS011;54354;44.724;11.284;2022-11-03T08:57:02;76.88;;;41.92;;
67508;SDS011;54354;44.724;11.284;2022-11-03T08:59:27;80.13;;;41.17;;
67508;SDS011;54354;44.724;11.284;2022-11-03T09:01:53;86.85;;;43.80;;
67508;SDS011;54354;44.724;11.284;2022-11-03T09:04:18;87.03;;;44.33;;
67508;SDS011;54354;44.724;11.284;2022-11-03T09:06:44;90.68;;;44.58;;
67508;SDS011;54354;44.724;11.284;2022-11-03T09:09:09;88.85;;;44.00;;
67508;SDS011;54354;44.724;11.284;2022-11-03T09:11:35;88.57;;;43.17;;
67508;SDS011;54354;44.724;11.284;2022-11-03T09:14:00;87.15;;;43.75;;
67508;SDS011;54354;44.724;11.284;2022-11-03T09:16:25;87.15;;;41.88;;
67508;SDS011;54354;44.724;11.284;2022-11-03T09:18:51;95.53;;;44.33;;
67508;SDS011;54354;44.724;11.284;2022-11-03T09:21:17;89.07;;;42.85;;
67508;SDS011;54354;44.724;11.284;2022-11-03T09:23:42;85.13;;;43.33;;
67508;SDS011;54354;44.724;11.284;2022-11-03T09:26:08;82.50;;;41.92;;
67508;SDS011;54354;44.724;11.284;2022-11-03T09:28:33;76.45;;;40.22;;
67508;SDS011;54354;44.724;11.284;2022-11-03T09:30:58;85.68;;;41.15;;
67508;SDS011;54354;44.724;11.284;2022-11-03T09:33:24;84.65;;;41.05;;
67508;SDS011;54354;44.724;11.284;2022-11-03T09:35:49;86.47;;;42.35;;
67508;SDS011;54354;44.724;11.284;2022-11-03T09:38:15;88.60;;;41.67;;
67508;SDS011;54354;44.724;11.284;2022-11-03T09:40:40;80.63;;;41.17;;
67508;SDS011;54354;44.724;11.284;2022-11-03T09:43:06;88.90;;;43.38;;
67508;SDS011;54354;44.724;11.284;2022-11-03T09:45:31;92.78;;;43.00;;
67508;SDS011;54354;44.724;11.284;2022-11-03T09:47:57;92.20;;;44.28;;
67508;SDS011;54354;44.724;11.284;2022-11-03T09:50:22;86.93;;;42.95;;
67508;SDS011;54354;44.724;11.284;2022-11-03T09:52:48;96.95;;;44.08;;
67508;SDS011;54354;44.724;11.284;2022-11-03T09:55:25;86.95;;;43.17;;
67508;SDS011;54354;44.724;11.284;2022-11-03T09:57:51;91.05;;;44.00;;
67508;SDS011;54354;44.724;11.284;2022-11-03T10:00:19;84.93;;;44.08;;
67508;SDS011;54354;44.724;11.284;2022-11-03T10:02:46;89.82;;;45.15;;
67508;SDS011;54354;44.724;11.284;2022-11-03T10:05:13;86.35;;;43.45;;
67508;SDS011;54354;44.724;11.284;2022-11-03T10:07:44;83.55;;;42.72;;
67508;SDS011;54354;44.724;11.284;2022-11-03T10:10:17;87.05;;;44.50;;
67508;SDS011;54354;44.724;11.284;2022-11-03T10:12:44;87.53;;;44.75;;
67508;SDS011;54354;44.724;11.284;2022-11-03T10:15:15;86.43;;;44.42;;
67508;SDS011;54354;44.724;11.284;2022-11-03T10:17:42;81.82;;;43.53;;
67508;SDS011;54354;44.724;11.284;2022-11-03T10:20:10;89.25;;;43.47;;
67508;SDS011;54354;44.724;11.284;2022-11-03T10:22:37;89.28;;;43.85;;
67508;SDS011;54354;44.724;11.284;2022-11-03T10:28:11;85.68;;;45.58;;
67508;SDS011;54354;44.724;11.284;2022-11-03T10:36:00;92.43;;;44.40;;
67508;SDS011;54354;44.724;11.284;2022-11-03T10:38:46;87.72;;;43.92;;
67508;SDS011;54354;44.724;11.284;2022-11-03T10:41:53;88.35;;;45.55;;
67508;SDS011;54354;44.724;11.284;2022-11-03T10:44:18;91.15;;;43.50;;
67508;SDS011;54354;44.724;11.284;2022-11-03T10:49:26;87.45;;;42.63;;
67508;SDS011;54354;44.724;11.284;2022-11-03T10:51:53;88.57;;;42.45;;
67508;SDS011;54354;44.724;11.284;2022-11-03T10:54:25;93.95;;;44.58;;
67508;SDS011;54354;44.724;11.284;2022-11-03T10:56:52;86.20;;;43.97;;
67508;SDS011;54354;44.724;11.284;2022-11-03T10:59:18;83.07;;;41.45;;
67508;SDS011;54354;44.724;11.284;2022-11-03T11:01:46;87.70;;;42.05;;
67508;SDS011;54354;44.724;11.284;2022-11-03T11:04:15;92.22;;;42.83;;
67508;SDS011;54354;44.724;11.284;2022-11-03T11:06:42;93.75;;;42.30;;
67508;SDS011;54354;44.724;11.284;2022-11-03T11:09:09;82.95;;;42.13;;
67508;SDS011;54354;44.724;11.284;2022-11-03T11:11:37;83.60;;;41.03;;
67508;SDS011;54354;44.724;11.284;2022-11-03T11:16:54;85.30;;;42.03;;
67508;SDS011;54354;44.724;11.284;2022-11-03T11:19:21;85.45;;;42.25;;
67508;SDS011;54354;44.724;11.284;2022-11-03T11:21:49;90.60;;;43.17;;
67508;SDS011;54354;44.724;11.284;2022-11-03T11:25:06;100.90;;;43.83;;
67508;SDS011;54354;44.724;11.284;2022-11-03T11:30:00;88.93;;;42.22;;
67508;SDS011;54354;44.724;11.284;2022-11-03T11:35:00;90.70;;;42.83;;
67508;SDS011;54354;44.724;11.284;2022-11-03T11:39:51;92.22;;;42.80;;
67508;SDS011;54354;44.724;11.284;2022-11-03T11:42:17;88.25;;;42.05;;
67508;SDS011;54354;44.724;11.284;2022-11-03T11:52:40;91.35;;;42.67;;
67508;SDS011;54354;44.724;11.284;2022-11-03T11:55:24;98.10;;;44.95;;
67508;SDS011;54354;44.724;11.284;2022-11-03T11:57:54;94.75;;;41.63;;
67508;SDS011;54354;44.724;11.284;2022-11-03T12:00:21;96.97;;;43.85;;
67508;SDS011;54354;44.724;11.284;2022-11-03T12:02:51;97.45;;;43.13;;
67508;SDS011;54354;44.724;11.284;2022-11-03T12:05:19;85.88;;;40.38;;
67508;SDS011;54354;44.724;11.284;2022-11-03T12:07:52;90.63;;;40.78;;
67508;SDS011;54354;44.724;11.284;2022-11-03T12:10:26;86.30;;;41.03;;
67508;SDS011;54354;44.724;11.284;2022-11-03T12:12:56;99.30;;;43.42;;
67508;SDS011;54354;44.724;11.284;2022-11-03T12:18:36;96.20;;;42.10;;
67508;SDS011;54354;44.724;11.284;2022-11-03T12:21:05;95.28;;;43.83;;
67508;SDS011;54354;44.724;11.284;2022-11-03T12:26:13;93.88;;;41.75;;
67508;SDS011;54354;44.724;11.284;2022-11-03T12:28:40;97.50;;;43.92;;
67508;SDS011;54354;44.724;11.284;2022-11-03T12:31:05;94.55;;;43.75;;
67508;SDS011;54354;44.724;11.284;2022-11-03T12:33:31;91.97;;;42.28;;
67508;SDS011;54354;44.724;11.284;2022-11-03T12:35:56;97.82;;;43.05;;
67508;SDS011;54354;44.724;11.284;2022-11-03T12:38:22;101.97;;;44.70;;
67508;SDS011;54354;44.724;11.284;2022-11-03T12:40:48;92.00;;;42.65;;
67508;SDS011;54354;44.724;11.284;2022-11-03T12:43:14;92.72;;;42.35;;
67508;SDS011;54354;44.724;11.284;2022-11-03T12:45:40;90.85;;;42.47;;
67508;SDS011;54354;44.724;11.284;2022-11-03T12:48:06;95.68;;;42.78;;
67508;SDS011;54354;44.724;11.284;2022-11-03T12:50:32;96.70;;;43.58;;
67508;SDS011;54354;44.724;11.284;2022-11-03T12:52:58;90.72;;;42.55;;
67508;SDS011;54354;44.724;11.284;2022-11-03T12:55:23;88.82;;;41.58;;
67508;SDS011;54354;44.724;11.284;2022-11-03T12:57:49;92.68;;;42.75;;
67508;SDS011;54354;44.724;11.284;2022-11-03T13:00:14;92.22;;;42.97;;
67508;SDS011;54354;44.724;11.284;2022-11-03T13:02:40;91.93;;;42.22;;
67508;SDS011;54354;44.724;11.284;2022-11-03T13:05:05;91.43;;;41.65;;
67508;SDS011;54354;44.724;11.284;2022-11-03T13:07:31;91.28;;;42.25;;
67508;SDS011;54354;44.724;11.284;2022-11-03T13:09:57;91.90;;;39.85;;
67508;SDS011;54354;44.724;11.284;2022-11-03T13:12:22;88.65;;;41.50;;
67508;SDS011;54354;44.724;11.284;2022-11-03T13:14:58;86.80;;;40.78;;
67508;SDS011;54354;44.724;11.284;2022-11-03T13:17:25;86.80;;;40.67;;
67508;SDS011;54354;44.724;11.284;2022-11-03T13:19:51;88.65;;;41.42;;
67508;SDS011;54354;44.724;11.284;2022-11-03T13:22:17;92.63;;;42.83;;
67508;SDS011;54354;44.724;11.284;2022-11-03T13:24:42;87.65;;;41.25;;
67508;SDS011;54354;44.724;11.284;2022-11-03T13:27:08;89.68;;;41.58;;
67508;SDS011;54354;44.724;11.284;2022-11-03T13:29:33;94.45;;;42.65;;
67508;SDS011;54354;44.724;11.284;2022-11-03T14:17:55;86.70;;;38.40;;
67508;SDS011;54354;44.724;11.284;2022-11-03T14:20:20;78.72;;;37.67;;
67508;SDS011;54354;44.724;11.284;2022-11-03T14:22:46;82.60;;;39.20;;
67508;SDS011;54354;44.724;11.284;2022-11-03T14:25:11;82.72;;;38.92;;
67508;SDS011;54354;44.724;11.284;2022-11-03T14:27:37;79.10;;;36.30;;
67508;SDS011;54354;44.724;11.284;2022-11-03T14:30:03;83.90;;;39.22;;
67508;SDS011;54354;44.724;11.284;2022-11-03T14:32:29;86.53;;;38.85;;
67508;SDS011;54354;44.724;11.284;2022-11-03T14:34:55;85.25;;;40.47;;
67508;SDS011;54354;44.724;11.284;2022-11-03T14:37:20;84.22;;;39.47;;
67508;SDS011;54354;44.724;11.284;2022-11-03T14:39:49;89.85;;;39.67;;
67508;SDS011;54354;44.724;11.284;2022-11-03T14:42:14;85.95;;;38.38;;
67508;SDS011;54354;44.724;11.284;2022-11-03T14:44:40;83.47;;;39.40;;
67508;SDS011;54354;44.724;11.284;2022-11-03T14:47:08;82.22;;;39.70;;
67508;SDS011;54354;44.724;11.284;2022-11-03T14:49:35;80.25;;;38.95;;
67508;SDS011;54354;44.724;11.284;2022-11-03T14:52:02;79.10;;;37.65;;
67508;SDS011;54354;44.724;11.284;2022-11-03T14:54:29;73.10;;;37.40;;
67508;SDS011;54354;44.724;11.284;2022-11-03T14:56:55;88.13;;;38.28;;
67508;SDS011;54354;44.724;11.284;2022-11-03T14:59:21;83.15;;;38.85;;
67508;SDS011;54354;44.724;11.284;2022-11-03T15:01:47;77.20;;;37.10;;
67508;SDS011;54354;44.724;11.284;2022-11-03T15:04:13;80.75;;;37.85;;
67508;SDS011;54354;44.724;11.284;2022-11-03T15:06:39;82.50;;;38.78;;
67508;SDS011;54354;44.724;11.284;2022-11-03T15:09:05;79.40;;;37.08;;
67508;SDS011;54354;44.724;11.284;2022-11-03T15:11:32;77.45;;;36.47;;
67508;SDS011;54354;44.724;11.284;2022-11-03T15:13:58;81.55;;;37.90;;
67508;SDS011;54354;44.724;11.284;2022-11-03T15:16:23;85.43;;;38.80;;
67508;SDS011;54354;44.724;11.284;2022-11-03T15:18:49;88.18;;;39.78;;
67508;SDS011;54354;44.724;11.284;2022-11-03T15:21:15;82.65;;;38.20;;
67508;SDS011;54354;44.724;11.284;2022-11-03T15:23:41;74.97;;;36.33;;
67508;SDS011;54354;44.724;11.284;2022-11-03T15:26:06;85.60;;;39.05;;
67508;SDS011;54354;44.724;11.284;2022-11-03T15:28:32;86.25;;;37.35;;
67508;SDS011;54354;44.724;11.284;2022-11-03T15:30:57;83.35;;;37.33;;
67508;SDS011;54354;44.724;11.284;2022-11-03T15:33:23;77.53;;;35.90;;
67508;SDS011;54354;44.724;11.284;2022-11-03T15:35:48;79.40;;;37.15;;
67508;SDS011;54354;44.724;11.284;2022-11-03T15:38:14;80.13;;;37.15;;
67508;SDS011;54354;44.724;11.284;2022-11-03T15:40:40;80.03;;;36.33;;
67508;SDS011;54354;44.724;11.284;2022-11-03T15:43:05;84.63;;;37.40;;
67508;SDS011;54354;44.724;11.284;2022-11-03T15:45:31;80.80;;;36.88;;
67508;SDS011;54354;44.724;11.284;2022-11-03T15:47:57;78.80;;;36.95;;
67508;SDS011;54354;44.724;11.284;2022-11-03T15:50:22;91.40;;;38.58;;
67508;SDS011;54354;44.724;11.284;2022-11-03T15:52:49;81.90;;;37.75;;
67508;SDS011;54354;44.724;11.284;2022-11-03T15:55:15;87.80;;;39.30;;
67508;SDS011;54354;44.724;11.284;2022-11-03T15:57:40;87.40;;;39.17;;
67508;SDS011;54354;44.724;11.284;2022-11-03T16:00:06;95.45;;;40.63;;
67508;SDS011;54354;44.724;11.284;2022-11-03T16:02:32;90.05;;;38.88;;
67508;SDS011;54354;44.724;11.284;2022-11-03T16:04:58;87.93;;;40.00;;
67508;SDS011;54354;44.724;11.284;2022-11-03T16:07:25;89.80;;;39.45;;
67508;SDS011;54354;44.724;11.284;2022-11-03T16:09:50;90.80;;;41.22;;
67508;SDS011;54354;44.724;11.284;2022-11-03T16:12:15;87.03;;;40.33;;
67508;SDS011;54354;44.724;11.284;2022-11-03T16:14:41;89.90;;;40.05;;
67508;SDS011;54354;44.724;11.284;2022-11-03T16:17:06;91.05;;;42.42;;
67508;SDS011;54354;44.724;11.284;2022-11-03T16:19:32;95.15;;;41.97;;
67508;SDS011;54354;44.724;11.284;2022-11-03T16:21:57;80.80;;;39.25;;
67508;SDS011;54354;44.724;11.284;2022-11-03T16:24:23;90.25;;;41.83;;
67508;SDS011;54354;44.724;11.284;2022-11-03T16:26:48;94.65;;;41.08;;
67508;SDS011;54354;44.724;11.284;2022-11-03T16:29:16;93.07;;;41.17;;
67508;SDS011;54354;44.724;11.284;2022-11-03T16:31:42;105.38;;;44.42;;
67508;SDS011;54354;44.724;11.284;2022-11-03T16:34:07;102.30;;;42.28;;
67508;SDS011;54354;44.724;11.284;2022-11-03T16:36:34;93.85;;;42.80;;
67508;SDS011;54354;44.724;11.284;2022-11-03T16:39:00;102.90;;;42.97;;
67508;SDS011;54354;44.724;11.284;2022-11-03T16:41:25;95.07;;;42.10;;
67508;SDS011;54354;44.724;11.284;2022-11-03T16:43:51;97.53;;;41.33;;
67508;SDS011;54354;44.724;11.284;2022-11-03T16:46:16;96.15;;;40.22;;
67508;SDS011;54354;44.724;11.284;2022-11-03T16:48:42;99.78;;;42.53;;
67508;SDS011;54354;44.724;11.284;2022-11-03T16:51:07;105.30;;;43.30;;
67508;SDS011;54354;44.724;11.284;2022-11-03T16:53:33;99.60;;;41.50;;